sensor_id;sensor_type;location;lat;lon;timestamp;P1;durP1;ratioP1;P2;durP2;ratioP2
53207;SDS011;39093;52.788;6.940;2023-03-19T00:00:21;17.63;;;14.18;;
53207;SDS011;39093;52.788;6.940;2023-03-19T00:02:48;17.17;;;14.23;;
53207;SDS011;39093;52.788;6.940;2023-03-19T00:05:17;16.45;;;14.77;;
53207;SDS011;39093;52.788;6.940;2023-03-19T00:07:44;18.40;;;14.70;;
53207;SDS011;39093;52.788;6.940;2023-03-19T00:10:11;17.27;;;13.93;;
53207;SDS011;39093;52.788;6.940;2023-03-19T00:12:38;17.05;;;15.23;;
53207;SDS011;39093;52.788;6.940;2023-03-19T00:15:06;16.20;;;14.40;;
53207;SDS011;39093;52.788;6.940;2023-03-19T00:17:34;17.15;;;15.40;;
53207;SDS011;39093;52.788;6.940;2023-03-19T00:20:01;16.88;;;14.55;;
53207;SDS011;39093;52.788;6.940;2023-03-19T00:22:28;15.60;;;14.00;;
53207;SDS011;39093;52.788;6.940;2023-03-19T00:24:55;17.88;;;16.02;;
53207;SDS011;39093;52.788;6.940;2023-03-19T00:27:22;18.55;;;16.60;;
53207;SDS011;39093;52.788;6.940;2023-03-19T00:29:49;18.60;;;16.48;;
53207;SDS011;39093;52.788;6.940;2023-03-19T00:32:16;20.08;;;16.02;;
53207;SDS011;39093;52.788;6.940;2023-03-19T00:34:43;19.83;;;16.02;;
53207;SDS011;39093;52.788;6.940;2023-03-19T00:37:10;18.50;;;16.52;;
53207;SDS011;39093;52.788;6.940;2023-03-19T00:39:37;18.85;;;16.90;;
53207;SDS011;39093;52.788;6.940;2023-03-19T00:42:05;18.58;;;16.67;;
53207;SDS011;39093;52.788;6.940;2023-03-19T00:44:32;19.85;;;17.80;;
53207;SDS011;39093;52.788;6.940;2023-03-19T00:46:59;18.63;;;16.73;;
53207;SDS011;39093;52.788;6.940;2023-03-19T00:49:25;19.00;;;17.05;;
53207;SDS011;39093;52.788;6.940;2023-03-19T00:51:52;18.88;;;16.98;;
53207;SDS011;39093;52.788;6.940;2023-03-19T00:54:19;20.67;;;18.13;;
53207;SDS011;39093;52.788;6.940;2023-03-19T00:56:46;19.67;;;17.60;;
53207;SDS011;39093;52.788;6.940;2023-03-19T00:59:13;19.52;;;17.45;;
53207;SDS011;39093;52.788;6.940;2023-03-19T01:01:40;19.20;;;17.10;;
53207;SDS011;39093;52.788;6.940;2023-03-19T01:04:07;18.52;;;16.70;;
53207;SDS011;39093;52.788;6.940;2023-03-19T01:06:34;19.13;;;17.23;;
53207;SDS011;39093;52.788;6.940;2023-03-19T01:09:01;23.52;;;18.13;;
53207;SDS011;39093;52.788;6.940;2023-03-19T01:11:28;19.27;;;17.20;;
53207;SDS011;39093;52.788;6.940;2023-03-19T01:13:55;20.55;;;18.15;;
53207;SDS011;39093;52.788;6.940;2023-03-19T01:16:22;20.08;;;18.08;;
53207;SDS011;39093;52.788;6.940;2023-03-19T01:18:49;23.50;;;19.30;;
53207;SDS011;39093;52.788;6.940;2023-03-19T01:21:17;19.35;;;17.27;;
53207;SDS011;39093;52.788;6.940;2023-03-19T01:23:44;25.33;;;19.63;;
53207;SDS011;39093;52.788;6.940;2023-03-19T01:26:11;23.65;;;19.67;;
53207;SDS011;39093;52.788;6.940;2023-03-19T01:28:38;20.80;;;18.60;;
53207;SDS011;39093;52.788;6.940;2023-03-19T01:31:05;23.15;;;18.80;;
53207;SDS011;39093;52.788;6.940;2023-03-19T01:33:33;20.50;;;18.38;;
53207;SDS011;39093;52.788;6.940;2023-03-19T01:36:00;20.80;;;17.98;;
53207;SDS011;39093;52.788;6.940;2023-03-19T01:38:30;20.30;;;18.20;;
53207;SDS011;39093;52.788;6.940;2023-03-19T01:40:57;21.95;;;18.58;;
53207;SDS011;39093;52.788;6.940;2023-03-19T01:43:25;22.95;;;19.08;;
53207;SDS011;39093;52.788;6.940;2023-03-19T01:45:56;22.65;;;18.38;;
53207;SDS011;39093;52.788;6.940;2023-03-19T01:48:46;21.35;;;18.90;;
53207;SDS011;39093;52.788;6.940;2023-03-19T01:51:17;19.60;;;17.25;;
53207;SDS011;39093;52.788;6.940;2023-03-19T01:53:48;23.00;;;17.80;;
53207;SDS011;39093;52.788;6.940;2023-03-19T01:56:20;21.02;;;17.45;;
53207;SDS011;39093;52.788;6.940;2023-03-19T01:58:51;22.73;;;17.67;;
53207;SDS011;39093;52.788;6.940;2023-03-19T02:01:22;20.35;;;18.15;;
53207;SDS011;39093;52.788;6.940;2023-03-19T02:03:49;19.33;;;17.00;;
53207;SDS011;39093;52.788;6.940;2023-03-19T02:06:18;19.60;;;17.48;;
53207;SDS011;39093;52.788;6.940;2023-03-19T02:08:47;21.17;;;18.05;;
53207;SDS011;39093;52.788;6.940;2023-03-19T02:11:16;22.80;;;17.17;;
53207;SDS011;39093;52.788;6.940;2023-03-19T02:13:44;20.27;;;17.50;;
53207;SDS011;39093;52.788;6.940;2023-03-19T02:16:12;22.77;;;17.60;;
53207;SDS011;39093;52.788;6.940;2023-03-19T02:18:41;20.40;;;18.30;;
53207;SDS011;39093;52.788;6.940;2023-03-19T02:21:09;22.33;;;18.38;;
53207;SDS011;39093;52.788;6.940;2023-03-19T02:24:01;23.02;;;18.10;;
53207;SDS011;39093;52.788;6.940;2023-03-19T02:26:33;20.40;;;16.83;;
53207;SDS011;39093;52.788;6.940;2023-03-19T02:29:02;20.80;;;17.90;;
53207;SDS011;39093;52.788;6.940;2023-03-19T02:31:29;19.95;;;16.23;;
53207;SDS011;39093;52.788;6.940;2023-03-19T02:33:57;19.95;;;17.35;;
53207;SDS011;39093;52.788;6.940;2023-03-19T02:36:44;20.13;;;16.75;;
53207;SDS011;39093;52.788;6.940;2023-03-19T02:39:19;21.67;;;16.67;;
53207;SDS011;39093;52.788;6.940;2023-03-19T02:41:50;17.33;;;15.13;;
53207;SDS011;39093;52.788;6.940;2023-03-19T02:44:19;19.08;;;15.27;;
53207;SDS011;39093;52.788;6.940;2023-03-19T02:46:46;17.55;;;15.05;;
53207;SDS011;39093;52.788;6.940;2023-03-19T02:49:13;17.95;;;13.40;;
53207;SDS011;39093;52.788;6.940;2023-03-19T02:51:40;14.88;;;13.30;;
53207;SDS011;39093;52.788;6.940;2023-03-19T02:54:07;15.20;;;11.02;;
53207;SDS011;39093;52.788;6.940;2023-03-19T02:56:34;16.25;;;13.07;;
53207;SDS011;39093;52.788;6.940;2023-03-19T02:59:01;15.52;;;11.57;;
53207;SDS011;39093;52.788;6.940;2023-03-19T03:01:29;13.77;;;11.10;;
53207;SDS011;39093;52.788;6.940;2023-03-19T03:03:56;12.45;;;10.68;;
53207;SDS011;39093;52.788;6.940;2023-03-19T03:06:23;10.02;;;8.85;;
53207;SDS011;39093;52.788;6.940;2023-03-19T03:08:50;9.65;;;8.02;;
53207;SDS011;39093;52.788;6.940;2023-03-19T03:11:17;9.70;;;7.43;;
53207;SDS011;39093;52.788;6.940;2023-03-19T03:13:44;9.52;;;6.80;;
53207;SDS011;39093;52.788;6.940;2023-03-19T03:16:11;11.45;;;6.85;;
53207;SDS011;39093;52.788;6.940;2023-03-19T03:18:38;7.80;;;5.82;;
53207;SDS011;39093;52.788;6.940;2023-03-19T03:21:08;6.13;;;5.53;;
53207;SDS011;39093;52.788;6.940;2023-03-19T03:23:35;6.55;;;5.18;;
53207;SDS011;39093;52.788;6.940;2023-03-19T03:26:02;7.28;;;5.45;;
53207;SDS011;39093;52.788;6.940;2023-03-19T03:28:29;5.70;;;4.38;;
53207;SDS011;39093;52.788;6.940;2023-03-19T03:31:00;5.95;;;4.45;;
53207;SDS011;39093;52.788;6.940;2023-03-19T03:33:27;6.80;;;4.10;;
53207;SDS011;39093;52.788;6.940;2023-03-19T03:35:55;5.80;;;4.80;;
53207;SDS011;39093;52.788;6.940;2023-03-19T03:38:22;6.50;;;4.18;;
53207;SDS011;39093;52.788;6.940;2023-03-19T03:40:50;7.32;;;4.25;;
53207;SDS011;39093;52.788;6.940;2023-03-19T03:43:21;6.22;;;3.85;;
53207;SDS011;39093;52.788;6.940;2023-03-19T03:45:48;8.38;;;5.35;;
53207;SDS011;39093;52.788;6.940;2023-03-19T03:48:15;5.38;;;3.92;;
53207;SDS011;39093;52.788;6.940;2023-03-19T03:50:42;5.93;;;3.85;;
53207;SDS011;39093;52.788;6.940;2023-03-19T03:53:09;5.40;;;4.18;;
53207;SDS011;39093;52.788;6.940;2023-03-19T03:55:38;7.53;;;4.00;;
53207;SDS011;39093;52.788;6.940;2023-03-19T03:58:05;4.53;;;3.67;;
53207;SDS011;39093;52.788;6.940;2023-03-19T04:00:32;6.80;;;3.88;;
53207;SDS011;39093;52.788;6.940;2023-03-19T04:03:00;5.60;;;4.18;;
53207;SDS011;39093;52.788;6.940;2023-03-19T04:05:28;5.47;;;3.80;;
53207;SDS011;39093;52.788;6.940;2023-03-19T04:07:55;4.22;;;3.70;;
53207;SDS011;39093;52.788;6.940;2023-03-19T04:10:22;4.78;;;3.72;;
53207;SDS011;39093;52.788;6.940;2023-03-19T04:12:49;7.05;;;3.65;;
53207;SDS011;39093;52.788;6.940;2023-03-19T04:15:16;4.53;;;3.50;;
53207;SDS011;39093;52.788;6.940;2023-03-19T04:17:43;5.00;;;3.58;;
53207;SDS011;39093;52.788;6.940;2023-03-19T04:20:11;4.88;;;3.22;;
53207;SDS011;39093;52.788;6.940;2023-03-19T04:22:38;5.32;;;3.63;;
53207;SDS011;39093;52.788;6.940;2023-03-19T04:25:05;4.28;;;3.47;;
53207;SDS011;39093;52.788;6.940;2023-03-19T04:27:33;4.68;;;3.47;;
53207;SDS011;39093;52.788;6.940;2023-03-19T04:30:02;6.40;;;3.67;;
53207;SDS011;39093;52.788;6.940;2023-03-19T04:32:29;6.80;;;3.20;;
53207;SDS011;39093;52.788;6.940;2023-03-19T04:34:56;4.32;;;3.38;;
53207;SDS011;39093;52.788;6.940;2023-03-19T04:37:23;5.72;;;3.85;;
53207;SDS011;39093;52.788;6.940;2023-03-19T04:39:50;7.15;;;3.45;;
53207;SDS011;39093;52.788;6.940;2023-03-19T04:42:18;6.20;;;3.63;;
53207;SDS011;39093;52.788;6.940;2023-03-19T04:44:45;5.38;;;4.28;;
53207;SDS011;39093;52.788;6.940;2023-03-19T04:47:12;6.28;;;3.30;;
53207;SDS011;39093;52.788;6.940;2023-03-19T04:49:39;4.53;;;3.90;;
53207;SDS011;39093;52.788;6.940;2023-03-19T04:52:06;6.13;;;3.72;;
53207;SDS011;39093;52.788;6.940;2023-03-19T04:54:34;3.92;;;3.08;;
53207;SDS011;39093;52.788;6.940;2023-03-19T04:57:01;6.82;;;3.75;;
53207;SDS011;39093;52.788;6.940;2023-03-19T04:59:28;4.93;;;4.05;;
53207;SDS011;39093;52.788;6.940;2023-03-19T05:01:55;4.07;;;3.50;;
53207;SDS011;39093;52.788;6.940;2023-03-19T05:04:22;5.63;;;3.75;;
53207;SDS011;39093;52.788;6.940;2023-03-19T05:06:49;5.82;;;3.92;;
53207;SDS011;39093;52.788;6.940;2023-03-19T05:09:16;5.68;;;3.88;;
53207;SDS011;39093;52.788;6.940;2023-03-19T05:11:43;6.82;;;3.85;;
53207;SDS011;39093;52.788;6.940;2023-03-19T05:14:10;9.07;;;3.67;;
53207;SDS011;39093;52.788;6.940;2023-03-19T05:16:37;5.32;;;3.80;;
53207;SDS011;39093;52.788;6.940;2023-03-19T05:19:04;7.70;;;4.38;;
53207;SDS011;39093;52.788;6.940;2023-03-19T05:21:30;5.03;;;3.70;;
53207;SDS011;39093;52.788;6.940;2023-03-19T05:23:58;4.47;;;3.38;;
53207;SDS011;39093;52.788;6.940;2023-03-19T05:26:25;4.63;;;3.83;;
53207;SDS011;39093;52.788;6.940;2023-03-19T05:28:52;7.35;;;3.75;;
53207;SDS011;39093;52.788;6.940;2023-03-19T05:31:19;6.15;;;4.18;;
53207;SDS011;39093;52.788;6.940;2023-03-19T05:33:46;4.53;;;4.00;;
53207;SDS011;39093;52.788;6.940;2023-03-19T05:36:13;4.07;;;3.55;;
53207;SDS011;39093;52.788;6.940;2023-03-19T05:38:40;6.75;;;4.07;;
53207;SDS011;39093;52.788;6.940;2023-03-19T05:41:07;6.32;;;4.65;;
53207;SDS011;39093;52.788;6.940;2023-03-19T05:43:33;4.72;;;4.22;;
53207;SDS011;39093;52.788;6.940;2023-03-19T05:46:00;5.30;;;4.07;;
53207;SDS011;39093;52.788;6.940;2023-03-19T05:48:28;6.57;;;4.50;;
53207;SDS011;39093;52.788;6.940;2023-03-19T05:50:55;5.65;;;4.45;;
53207;SDS011;39093;52.788;6.940;2023-03-19T05:53:22;6.47;;;4.22;;
53207;SDS011;39093;52.788;6.940;2023-03-19T05:55:49;6.35;;;4.50;;
53207;SDS011;39093;52.788;6.940;2023-03-19T05:58:16;5.82;;;4.18;;
53207;SDS011;39093;52.788;6.940;2023-03-19T06:00:42;5.82;;;4.68;;
53207;SDS011;39093;52.788;6.940;2023-03-19T06:03:09;5.85;;;5.22;;
53207;SDS011;39093;52.788;6.940;2023-03-19T06:05:37;6.60;;;3.95;;
53207;SDS011;39093;52.788;6.940;2023-03-19T06:08:04;6.75;;;4.65;;
53207;SDS011;39093;52.788;6.940;2023-03-19T06:10:33;9.43;;;4.93;;
53207;SDS011;39093;52.788;6.940;2023-03-19T06:13:01;6.10;;;4.53;;
53207;SDS011;39093;52.788;6.940;2023-03-19T06:15:28;5.53;;;4.78;;
53207;SDS011;39093;52.788;6.940;2023-03-19T06:17:55;5.07;;;4.20;;
53207;SDS011;39093;52.788;6.940;2023-03-19T06:20:23;6.35;;;4.55;;
53207;SDS011;39093;52.788;6.940;2023-03-19T06:22:50;6.90;;;4.97;;
53207;SDS011;39093;52.788;6.940;2023-03-19T06:25:17;9.15;;;4.60;;
53207;SDS011;39093;52.788;6.940;2023-03-19T06:27:44;6.43;;;4.93;;
53207;SDS011;39093;52.788;6.940;2023-03-19T06:30:11;8.52;;;4.55;;
53207;SDS011;39093;52.788;6.940;2023-03-19T06:32:39;5.82;;;4.30;;
53207;SDS011;39093;52.788;6.940;2023-03-19T06:35:06;9.15;;;4.70;;
53207;SDS011;39093;52.788;6.940;2023-03-19T06:37:33;5.45;;;4.95;;
53207;SDS011;39093;52.788;6.940;2023-03-19T06:40:00;8.88;;;5.22;;
53207;SDS011;39093;52.788;6.940;2023-03-19T06:42:28;7.35;;;4.63;;
53207;SDS011;39093;52.788;6.940;2023-03-19T06:44:55;6.20;;;4.93;;
53207;SDS011;39093;52.788;6.940;2023-03-19T06:47:22;8.43;;;5.13;;
53207;SDS011;39093;52.788;6.940;2023-03-19T06:49:49;7.05;;;5.55;;
53207;SDS011;39093;52.788;6.940;2023-03-19T06:52:16;8.18;;;6.05;;
53207;SDS011;39093;52.788;6.940;2023-03-19T06:54:43;7.63;;;6.15;;
53207;SDS011;39093;52.788;6.940;2023-03-19T06:57:10;8.48;;;5.97;;
53207;SDS011;39093;52.788;6.940;2023-03-19T06:59:37;8.70;;;5.68;;
53207;SDS011;39093;52.788;6.940;2023-03-19T07:02:04;8.38;;;6.00;;
53207;SDS011;39093;52.788;6.940;2023-03-19T07:04:34;7.45;;;5.57;;
53207;SDS011;39093;52.788;6.940;2023-03-19T07:07:01;8.30;;;6.20;;
53207;SDS011;39093;52.788;6.940;2023-03-19T07:09:28;6.43;;;5.82;;
53207;SDS011;39093;52.788;6.940;2023-03-19T07:11:55;7.55;;;6.15;;
53207;SDS011;39093;52.788;6.940;2023-03-19T07:14:22;10.07;;;6.38;;
53207;SDS011;39093;52.788;6.940;2023-03-19T07:16:49;9.15;;;7.13;;
53207;SDS011;39093;52.788;6.940;2023-03-19T07:19:16;10.45;;;7.03;;
53207;SDS011;39093;52.788;6.940;2023-03-19T07:21:43;7.82;;;7.00;;
53207;SDS011;39093;52.788;6.940;2023-03-19T07:24:10;8.27;;;6.45;;
53207;SDS011;39093;52.788;6.940;2023-03-19T07:26:37;7.93;;;6.32;;
53207;SDS011;39093;52.788;6.940;2023-03-19T07:29:04;12.20;;;6.85;;
53207;SDS011;39093;52.788;6.940;2023-03-19T07:31:31;7.07;;;6.28;;
53207;SDS011;39093;52.788;6.940;2023-03-19T07:33:58;7.05;;;6.35;;
53207;SDS011;39093;52.788;6.940;2023-03-19T07:36:25;7.60;;;6.18;;
53207;SDS011;39093;52.788;6.940;2023-03-19T07:38:52;8.27;;;7.03;;
53207;SDS011;39093;52.788;6.940;2023-03-19T07:41:19;10.00;;;6.82;;
53207;SDS011;39093;52.788;6.940;2023-03-19T07:43:47;8.52;;;6.55;;
53207;SDS011;39093;52.788;6.940;2023-03-19T07:46:14;8.05;;;7.20;;
53207;SDS011;39093;52.788;6.940;2023-03-19T07:48:41;10.32;;;7.35;;
53207;SDS011;39093;52.788;6.940;2023-03-19T07:51:08;9.80;;;7.57;;
53207;SDS011;39093;52.788;6.940;2023-03-19T07:53:35;9.98;;;8.20;;
53207;SDS011;39093;52.788;6.940;2023-03-19T07:56:02;10.25;;;8.88;;
53207;SDS011;39093;52.788;6.940;2023-03-19T07:58:29;11.10;;;9.48;;
53207;SDS011;39093;52.788;6.940;2023-03-19T08:00:56;11.27;;;9.35;;
53207;SDS011;39093;52.788;6.940;2023-03-19T08:03:23;11.57;;;9.55;;
53207;SDS011;39093;52.788;6.940;2023-03-19T08:05:50;12.05;;;9.98;;
53207;SDS011;39093;52.788;6.940;2023-03-19T08:08:17;13.10;;;11.00;;
53207;SDS011;39093;52.788;6.940;2023-03-19T08:10:44;12.98;;;10.38;;
53207;SDS011;39093;52.788;6.940;2023-03-19T08:13:13;19.13;;;12.40;;
53207;SDS011;39093;52.788;6.940;2023-03-19T08:15:41;15.70;;;10.70;;
53207;SDS011;39093;52.788;6.940;2023-03-19T08:18:08;14.77;;;11.63;;
53207;SDS011;39093;52.788;6.940;2023-03-19T08:20:35;14.05;;;11.52;;
53207;SDS011;39093;52.788;6.940;2023-03-19T08:23:02;14.98;;;11.13;;
53207;SDS011;39093;52.788;6.940;2023-03-19T08:25:29;15.48;;;11.82;;
53207;SDS011;39093;52.788;6.940;2023-03-19T08:28:01;13.18;;;11.10;;
53207;SDS011;39093;52.788;6.940;2023-03-19T08:30:28;15.93;;;11.98;;
53207;SDS011;39093;52.788;6.940;2023-03-19T08:32:55;15.02;;;11.00;;
53207;SDS011;39093;52.788;6.940;2023-03-19T08:35:22;14.88;;;12.18;;
53207;SDS011;39093;52.788;6.940;2023-03-19T08:37:52;15.75;;;11.00;;
53207;SDS011;39093;52.788;6.940;2023-03-19T08:40:20;13.93;;;11.57;;
53207;SDS011;39093;52.788;6.940;2023-03-19T08:42:48;17.10;;;11.27;;
53207;SDS011;39093;52.788;6.940;2023-03-19T08:45:15;14.30;;;11.13;;
53207;SDS011;39093;52.788;6.940;2023-03-19T08:47:42;18.00;;;11.10;;
53207;SDS011;39093;52.788;6.940;2023-03-19T08:50:10;13.07;;;11.68;;
53207;SDS011;39093;52.788;6.940;2023-03-19T08:52:37;11.98;;;10.68;;
53207;SDS011;39093;52.788;6.940;2023-03-19T08:55:05;13.27;;;11.07;;
53207;SDS011;39093;52.788;6.940;2023-03-19T08:57:32;13.30;;;10.65;;
53207;SDS011;39093;52.788;6.940;2023-03-19T09:00:01;12.68;;;10.90;;
53207;SDS011;39093;52.788;6.940;2023-03-19T09:02:31;11.45;;;9.70;;
53207;SDS011;39093;52.788;6.940;2023-03-19T09:04:57;10.68;;;9.55;;
53207;SDS011;39093;52.788;6.940;2023-03-19T09:07:24;11.05;;;9.85;;
53207;SDS011;39093;52.788;6.940;2023-03-19T09:09:51;13.15;;;9.95;;
53207;SDS011;39093;52.788;6.940;2023-03-19T09:12:18;12.35;;;9.82;;
53207;SDS011;39093;52.788;6.940;2023-03-19T09:14:45;12.52;;;10.50;;
53207;SDS011;39093;52.788;6.940;2023-03-19T09:17:12;11.27;;;9.52;;
53207;SDS011;39093;52.788;6.940;2023-03-19T09:19:40;10.88;;;9.70;;
53207;SDS011;39093;52.788;6.940;2023-03-19T09:22:07;12.07;;;9.57;;
53207;SDS011;39093;52.788;6.940;2023-03-19T09:24:34;12.48;;;9.70;;
53207;SDS011;39093;52.788;6.940;2023-03-19T09:27:05;10.95;;;9.23;;
53207;SDS011;39093;52.788;6.940;2023-03-19T09:29:32;10.10;;;8.18;;
53207;SDS011;39093;52.788;6.940;2023-03-19T09:32:04;12.18;;;8.48;;
53207;SDS011;39093;52.788;6.940;2023-03-19T09:34:32;9.55;;;8.13;;
53207;SDS011;39093;52.788;6.940;2023-03-19T09:37:02;9.02;;;8.05;;
53207;SDS011;39093;52.788;6.940;2023-03-19T09:39:28;11.63;;;8.48;;
53207;SDS011;39093;52.788;6.940;2023-03-19T09:42:18;10.13;;;8.10;;
53207;SDS011;39093;52.788;6.940;2023-03-19T09:45:11;10.63;;;7.70;;
53207;SDS011;39093;52.788;6.940;2023-03-19T09:47:41;9.63;;;8.32;;
53207;SDS011;39093;52.788;6.940;2023-03-19T09:50:20;9.38;;;8.20;;
53207;SDS011;39093;52.788;6.940;2023-03-19T09:55:56;9.40;;;8.27;;
53207;SDS011;39093;52.788;6.940;2023-03-19T09:58:32;15.23;;;9.25;;
53207;SDS011;39093;52.788;6.940;2023-03-19T10:01:01;11.10;;;8.93;;
53207;SDS011;39093;52.788;6.940;2023-03-19T10:06:44;8.95;;;7.97;;
53207;SDS011;39093;52.788;6.940;2023-03-19T10:15:17;9.82;;;8.35;;
53207;SDS011;39093;52.788;6.940;2023-03-19T10:17:56;11.55;;;9.15;;
53207;SDS011;39093;52.788;6.940;2023-03-19T10:23:36;11.43;;;9.35;;
53207;SDS011;39093;52.788;6.940;2023-03-19T10:26:10;12.48;;;9.73;;
53207;SDS011;39093;52.788;6.940;2023-03-19T10:28:40;10.55;;;7.28;;
53207;SDS011;39093;52.788;6.940;2023-03-19T10:37:37;9.32;;;6.78;;
53207;SDS011;39093;52.788;6.940;2023-03-19T10:39:47;7.93;;;6.55;;
53207;SDS011;39093;52.788;6.940;2023-03-19T10:47:53;7.68;;;6.88;;
53207;SDS011;39093;52.788;6.940;2023-03-19T10:50:33;7.72;;;6.93;;
53207;SDS011;39093;52.788;6.940;2023-03-19T10:55:49;7.85;;;6.97;;
53207;SDS011;39093;52.788;6.940;2023-03-19T10:58:27;8.55;;;7.32;;
53207;SDS011;39093;52.788;6.940;2023-03-19T11:08:33;10.48;;;7.68;;
53207;SDS011;39093;52.788;6.940;2023-03-19T11:11:02;10.23;;;7.43;;
53207;SDS011;39093;52.788;6.940;2023-03-19T11:13:29;12.13;;;8.27;;
53207;SDS011;39093;52.788;6.940;2023-03-19T11:16:00;10.23;;;7.68;;
53207;SDS011;39093;52.788;6.940;2023-03-19T11:18:35;9.75;;;7.38;;
53207;SDS011;39093;52.788;6.940;2023-03-19T11:21:05;9.73;;;7.28;;
53207;SDS011;39093;52.788;6.940;2023-03-19T11:23:53;9.05;;;7.10;;
53207;SDS011;39093;52.788;6.940;2023-03-19T11:26:25;11.32;;;7.68;;
53207;SDS011;39093;52.788;6.940;2023-03-19T11:29:00;10.50;;;8.38;;
53207;SDS011;39093;52.788;6.940;2023-03-19T11:42:39;10.60;;;8.00;;
53207;SDS011;39093;52.788;6.940;2023-03-19T11:48:29;10.05;;;8.23;;
53207;SDS011;39093;52.788;6.940;2023-03-19T11:56:41;9.65;;;7.55;;
53207;SDS011;39093;52.788;6.940;2023-03-19T11:59:25;10.70;;;7.60;;
53207;SDS011;39093;52.788;6.940;2023-03-19T12:26:58;8.65;;;7.45;;
53207;SDS011;39093;52.788;6.940;2023-03-19T12:29:54;10.05;;;7.38;;
53207;SDS011;39093;52.788;6.940;2023-03-19T12:35:13;8.00;;;6.95;;
53207;SDS011;39093;52.788;6.940;2023-03-19T12:37:45;8.43;;;7.00;;
53207;SDS011;39093;52.788;6.940;2023-03-19T12:42:58;9.10;;;7.70;;
53207;SDS011;39093;52.788;6.940;2023-03-19T12:45:39;8.43;;;7.55;;
53207;SDS011;39093;52.788;6.940;2023-03-19T12:48:18;8.23;;;7.43;;
53207;SDS011;39093;52.788;6.940;2023-03-19T12:50:53;9.57;;;7.47;;
53207;SDS011;39093;52.788;6.940;2023-03-19T12:53:29;8.20;;;7.40;;
53207;SDS011;39093;52.788;6.940;2023-03-19T12:56:18;7.80;;;6.70;;
53207;SDS011;39093;52.788;6.940;2023-03-19T12:59:12;8.55;;;7.10;;
53207;SDS011;39093;52.788;6.940;2023-03-19T13:01:46;10.98;;;7.28;;
53207;SDS011;39093;52.788;6.940;2023-03-19T13:07:04;9.52;;;7.85;;
53207;SDS011;39093;52.788;6.940;2023-03-19T13:09:43;10.00;;;8.32;;
53207;SDS011;39093;52.788;6.940;2023-03-19T13:12:20;9.23;;;7.72;;
53207;SDS011;39093;52.788;6.940;2023-03-19T13:22:53;8.80;;;7.30;;
53207;SDS011;39093;52.788;6.940;2023-03-19T13:25:24;7.82;;;7.00;;
53207;SDS011;39093;52.788;6.940;2023-03-19T13:28:00;9.02;;;7.50;;
53207;SDS011;39093;52.788;6.940;2023-03-19T13:30:31;7.63;;;6.57;;
53207;SDS011;39093;52.788;6.940;2023-03-19T13:33:03;8.30;;;7.50;;
53207;SDS011;39093;52.788;6.940;2023-03-19T13:35:34;8.25;;;7.40;;
53207;SDS011;39093;52.788;6.940;2023-03-19T13:46:22;9.90;;;7.88;;
53207;SDS011;39093;52.788;6.940;2023-03-19T13:49:08;7.95;;;6.47;;
53207;SDS011;39093;52.788;6.940;2023-03-19T13:51:52;8.32;;;6.65;;
53207;SDS011;39093;52.788;6.940;2023-03-19T13:54:33;6.78;;;6.07;;
53207;SDS011;39093;52.788;6.940;2023-03-19T13:57:16;6.97;;;6.28;;
53207;SDS011;39093;52.788;6.940;2023-03-19T13:59:49;7.25;;;6.53;;
53207;SDS011;39093;52.788;6.940;2023-03-19T14:05:07;8.45;;;6.50;;
53207;SDS011;39093;52.788;6.940;2023-03-19T14:07:45;9.05;;;6.97;;
53207;SDS011;39093;52.788;6.940;2023-03-19T14:10:23;8.63;;;6.72;;
53207;SDS011;39093;52.788;6.940;2023-03-19T14:13:04;7.85;;;6.68;;
53207;SDS011;39093;52.788;6.940;2023-03-19T14:15:34;7.72;;;6.78;;
53207;SDS011;39093;52.788;6.940;2023-03-19T14:18:09;7.28;;;6.25;;
53207;SDS011;39093;52.788;6.940;2023-03-19T14:20:43;6.20;;;5.45;;
53207;SDS011;39093;52.788;6.940;2023-03-19T14:23:25;7.40;;;5.50;;
53207;SDS011;39093;52.788;6.940;2023-03-19T14:26:17;7.70;;;6.28;;
53207;SDS011;39093;52.788;6.940;2023-03-19T14:31:22;7.80;;;5.97;;
53207;SDS011;39093;52.788;6.940;2023-03-19T14:33:57;10.50;;;7.20;;
53207;SDS011;39093;52.788;6.940;2023-03-19T14:36:43;10.75;;;7.80;;
53207;SDS011;39093;52.788;6.940;2023-03-19T14:39:19;7.97;;;6.95;;
53207;SDS011;39093;52.788;6.940;2023-03-19T14:41:50;8.60;;;7.32;;
53207;SDS011;39093;52.788;6.940;2023-03-19T14:47:22;9.60;;;7.53;;
53207;SDS011;39093;52.788;6.940;2023-03-19T14:55:40;9.00;;;7.53;;
53207;SDS011;39093;52.788;6.940;2023-03-19T14:58:10;11.82;;;8.27;;
53207;SDS011;39093;52.788;6.940;2023-03-19T15:00:48;8.63;;;7.72;;
53207;SDS011;39093;52.788;6.940;2023-03-19T15:03:21;10.07;;;7.85;;
53207;SDS011;39093;52.788;6.940;2023-03-19T15:06:05;12.07;;;8.65;;
53207;SDS011;39093;52.788;6.940;2023-03-19T15:08:36;12.57;;;8.38;;
53207;SDS011;39093;52.788;6.940;2023-03-19T15:16:39;12.73;;;8.88;;
53207;SDS011;39093;52.788;6.940;2023-03-19T15:19:16;11.57;;;9.30;;
53207;SDS011;39093;52.788;6.940;2023-03-19T15:21:49;11.40;;;9.57;;
53207;SDS011;39093;52.788;6.940;2023-03-19T15:24:16;11.35;;;8.82;;
53207;SDS011;39093;52.788;6.940;2023-03-19T15:26:44;15.30;;;11.75;;
53207;SDS011;39093;52.788;6.940;2023-03-19T15:29:11;12.70;;;9.90;;
53207;SDS011;39093;52.788;6.940;2023-03-19T15:31:39;16.23;;;10.10;;
53207;SDS011;39093;52.788;6.940;2023-03-19T15:34:26;12.10;;;10.25;;
53207;SDS011;39093;52.788;6.940;2023-03-19T15:36:56;13.65;;;11.15;;
53207;SDS011;39093;52.788;6.940;2023-03-19T15:39:33;15.93;;;11.18;;
53207;SDS011;39093;52.788;6.940;2023-03-19T15:42:05;15.93;;;11.15;;
53207;SDS011;39093;52.788;6.940;2023-03-19T15:44:37;17.52;;;11.40;;
53207;SDS011;39093;52.788;6.940;2023-03-19T15:47:10;16.40;;;10.65;;
53207;SDS011;39093;52.788;6.940;2023-03-19T15:49:43;12.10;;;10.52;;
53207;SDS011;39093;52.788;6.940;2023-03-19T15:52:18;14.90;;;11.48;;
53207;SDS011;39093;52.788;6.940;2023-03-19T15:54:45;15.75;;;10.75;;
53207;SDS011;39093;52.788;6.940;2023-03-19T15:57:13;18.60;;;13.63;;
53207;SDS011;39093;52.788;6.940;2023-03-19T15:59:43;20.48;;;13.60;;
53207;SDS011;39093;52.788;6.940;2023-03-19T16:02:23;20.70;;;14.48;;
53207;SDS011;39093;52.788;6.940;2023-03-19T16:05:00;22.63;;;15.68;;
53207;SDS011;39093;52.788;6.940;2023-03-19T16:07:49;21.20;;;14.63;;
53207;SDS011;39093;52.788;6.940;2023-03-19T16:10:30;24.65;;;16.17;;
53207;SDS011;39093;52.788;6.940;2023-03-19T16:12:59;24.42;;;14.95;;
53207;SDS011;39093;52.788;6.940;2023-03-19T16:20:43;26.70;;;15.23;;
53207;SDS011;39093;52.788;6.940;2023-03-19T16:23:21;22.42;;;14.50;;
53207;SDS011;39093;52.788;6.940;2023-03-19T16:26:02;22.73;;;14.07;;
53207;SDS011;39093;52.788;6.940;2023-03-19T16:28:58;22.60;;;13.98;;
53207;SDS011;39093;52.788;6.940;2023-03-19T16:31:31;24.20;;;14.40;;
53207;SDS011;39093;52.788;6.940;2023-03-19T16:34:54;24.85;;;15.07;;
53207;SDS011;39093;52.788;6.940;2023-03-19T16:37:01;22.05;;;13.82;;
53207;SDS011;39093;52.788;6.940;2023-03-19T16:39:55;25.73;;;13.77;;
53207;SDS011;39093;52.788;6.940;2023-03-19T16:47:53;24.48;;;12.80;;
53207;SDS011;39093;52.788;6.940;2023-03-19T16:50:38;19.95;;;12.85;;
53207;SDS011;39093;52.788;6.940;2023-03-19T16:53:13;20.92;;;12.65;;
53207;SDS011;39093;52.788;6.940;2023-03-19T16:55:44;22.05;;;14.07;;
53207;SDS011;39093;52.788;6.940;2023-03-19T16:58:13;20.02;;;13.05;;
53207;SDS011;39093;52.788;6.940;2023-03-19T17:00:43;25.13;;;13.57;;
53207;SDS011;39093;52.788;6.940;2023-03-19T17:03:14;25.15;;;14.63;;
53207;SDS011;39093;52.788;6.940;2023-03-19T17:05:43;25.95;;;13.70;;
53207;SDS011;39093;52.788;6.940;2023-03-19T17:08:11;22.08;;;13.13;;
53207;SDS011;39093;52.788;6.940;2023-03-19T17:10:40;21.38;;;13.52;;